Time;durP1;ratioP1;P1;durP2;ratioP2;P2;SDS_P1;SDS_P2;PMS_P1;PMS_P2;Temp;Humidity;BMP_temperature;BMP_pressure;BME280_temperature;BME280_humidity;BME280_pressure;Samples;Min_cycle;Max_cycle;Signal;HPM_P1;HPM_P2
2021/05/14 00:01:28;;;;;;;5.15;3.53;;;10.70;99.90;;;;;;5002710;28;20028;-57
2021/05/14 00:03:54;;;;;;;6.95;4.35;;;10.70;99.90;;;;;;4968180;28;20046;-58
2021/05/14 00:06:19;;;;;;;5.30;4.03;;;10.70;99.90;;;;;;5006244;28;20080;-57
2021/05/14 00:08:45;;;;;;;6.45;3.85;;;10.60;99.90;;;;;;5010492;28;20037;-59
2021/05/14 00:11:10;;;;;;;9.13;4.18;;;10.60;99.90;;;;;;5012549;28;20026;-58
2021/05/14 00:13:36;;;;;;;6.50;4.35;;;10.60;99.90;;;;;;5011567;28;20034;-57
2021/05/14 00:16:01;;;;;;;5.20;3.63;;;10.50;99.90;;;;;;5012151;28;20065;-57
2021/05/14 00:18:27;;;;;;;7.50;3.85;;;10.50;99.90;;;;;;5011280;28;20032;-57
2021/05/14 00:20:53;;;;;;;6.07;3.50;;;10.60;99.90;;;;;;5011890;28;20041;-57
2021/05/14 00:23:18;;;;;;;5.32;3.15;;;10.50;99.90;;;;;;5012779;28;20364;-56
2021/05/14 00:25:44;;;;;;;3.63;3.03;;;10.50;99.90;;;;;;5019064;28;20398;-57
2021/05/14 00:28:10;;;;;;;4.88;3.30;;;10.50;99.90;;;;;;5013729;28;20027;-56
2021/05/14 00:30:36;;;;;;;7.03;3.40;;;10.50;99.90;;;;;;5014842;28;20122;-53
2021/05/14 00:33:01;;;;;;;4.40;3.15;;;10.50;99.90;;;;;;5010444;28;20025;-58
2021/05/14 00:35:30;;;;;;;5.03;3.38;;;10.40;99.90;;;;;;5010073;28;20105;-58
2021/05/14 00:37:56;;;;;;;6.82;3.75;;;10.40;99.90;;;;;;5012863;28;20033;-56
2021/05/14 00:40:21;;;;;;;6.78;3.22;;;10.40;99.90;;;;;;5008447;28;20025;-57
2021/05/14 00:42:47;;;;;;;5.72;3.40;;;10.40;99.90;;;;;;5011112;28;20042;-55
2021/05/14 00:45:12;;;;;;;8.30;3.40;;;10.40;99.90;;;;;;5008435;28;20019;-56
2021/05/14 00:47:38;;;;;;;3.40;3.05;;;10.50;99.90;;;;;;5008778;28;20034;-56
2021/05/14 00:50:05;;;;;;;4.20;2.78;;;10.50;99.90;;;;;;5010288;28;20042;-54
2021/05/14 00:52:31;;;;;;;8.95;3.50;;;10.50;99.90;;;;;;5011119;28;20396;-58
2021/05/14 00:54:57;;;;;;;4.75;2.88;;;10.50;99.90;;;;;;5008228;28;20037;-57
2021/05/14 00:57:23;;;;;;;5.43;3.22;;;10.50;99.90;;;;;;5003650;28;20376;-58
2021/05/14 00:59:49;;;;;;;5.88;3.10;;;10.50;99.90;;;;;;5000609;28;20555;-57
2021/05/14 01:02:15;;;;;;;7.13;3.35;;;10.50;99.90;;;;;;4985497;28;20110;-57
2021/05/14 01:04:44;;;;;;;5.82;3.80;;;10.50;99.90;;;;;;5009853;28;20380;-57
2021/05/14 01:07:13;;;;;;;4.65;2.97;;;10.50;99.90;;;;;;5009100;28;20025;-57
2021/05/14 01:09:40;;;;;;;8.35;3.50;;;10.50;99.90;;;;;;4999979;28;20503;-53
2021/05/14 01:12:07;;;;;;;6.53;4.20;;;10.50;99.90;;;;;;5010177;28;20033;-57
2021/05/14 01:14:32;;;;;;;6.40;3.70;;;10.50;99.90;;;;;;5009559;28;20096;-60
2021/05/14 01:16:58;;;;;;;4.15;3.67;;;10.50;99.90;;;;;;5010506;28;20033;-55
2021/05/14 01:19:24;;;;;;;8.57;4.00;;;10.50;99.90;;;;;;5008693;28;20118;-56
2021/05/14 01:21:50;;;;;;;7.22;3.67;;;10.40;99.90;;;;;;5010278;28;20033;-57
2021/05/14 01:24:16;;;;;;;5.32;3.30;;;10.30;99.90;;;;;;5005962;28;20434;-59
2021/05/14 01:26:42;;;;;;;7.53;4.15;;;10.30;99.90;;;;;;5009986;28;20057;-57
2021/05/14 01:29:09;;;;;;;7.78;3.20;;;10.20;99.90;;;;;;5006965;28;20101;-56
2021/05/14 01:31:35;;;;;;;5.43;3.72;;;10.20;99.90;;;;;;5009176;28;20140;-57
2021/05/14 01:34:01;;;;;;;4.95;4.20;;;10.10;99.90;;;;;;5010698;28;20502;-57
2021/05/14 01:36:27;;;;;;;9.57;4.72;;;10.00;99.90;;;;;;5010042;28;20041;-55
2021/05/14 01:38:52;;;;;;;4.88;4.30;;;10.00;99.90;;;;;;5004995;28;20018;-57
2021/05/14 01:41:18;;;;;;;8.95;4.25;;;10.00;99.90;;;;;;5012361;28;20034;-58
2021/05/14 01:43:43;;;;;;;6.13;4.18;;;9.90;99.90;;;;;;5009251;28;20045;-55
2021/05/14 01:46:09;;;;;;;6.43;4.70;;;9.90;99.90;;;;;;5009535;28;20053;-57
2021/05/14 01:48:34;;;;;;;9.52;4.53;;;9.80;99.90;;;;;;5004081;28;20062;-56
2021/05/14 01:51:16;;;;;;;11.15;5.05;;;9.80;99.90;;;;;;5009885;28;20104;-58
2021/05/14 01:53:42;;;;;;;9.57;5.72;;;9.80;99.90;;;;;;5007821;28;20026;-57
2021/05/14 01:56:07;;;;;;;9.48;5.90;;;9.80;99.90;;;;;;5007985;28;20032;-58
2021/05/14 01:58:33;;;;;;;8.57;6.05;;;9.80;99.90;;;;;;5010218;28;20030;-59
2021/05/14 02:00:58;;;;;;;9.98;7.18;;;9.80;99.90;;;;;;5015717;28;20045;-57
2021/05/14 02:03:24;;;;;;;12.18;7.38;;;9.80;99.90;;;;;;5007003;28;20125;-56
2021/05/14 02:05:50;;;;;;;8.02;6.32;;;9.70;99.90;;;;;;5006921;28;20027;-57
2021/05/14 02:08:16;;;;;;;9.45;7.05;;;9.70;99.90;;;;;;5006651;28;20495;-57
2021/05/14 02:10:41;;;;;;;10.75;6.80;;;9.70;99.90;;;;;;5005435;28;20491;-58
2021/05/14 02:13:07;;;;;;;9.05;6.43;;;9.80;99.90;;;;;;5005954;28;20038;-57
2021/05/14 02:15:33;;;;;;;9.07;6.60;;;9.80;99.90;;;;;;5010558;28;20569;-57
2021/05/14 02:17:59;;;;;;;10.77;6.63;;;9.80;99.90;;;;;;4999562;28;20642;-57
2021/05/14 02:20:25;;;;;;;8.77;6.28;;;9.80;99.90;;;;;;5013446;28;20814;-57
2021/05/14 02:22:50;;;;;;;6.32;5.15;;;9.90;99.90;;;;;;5009516;28;20034;-56
2021/05/14 02:25:16;;;;;;;6.53;5.57;;;9.90;99.90;;;;;;5010256;28;20025;-58
2021/05/14 02:27:41;;;;;;;8.05;5.85;;;9.90;99.90;;;;;;5005337;28;20026;-58
2021/05/14 02:30:09;;;;;;;10.65;5.57;;;9.90;99.90;;;;;;5002091;28;20022;-54
2021/05/14 02:32:34;;;;;;;7.88;5.00;;;10.00;99.90;;;;;;5007716;28;20031;-57
2021/05/14 02:35:00;;;;;;;7.20;5.32;;;10.00;99.90;;;;;;5010679;28;20036;-60
2021/05/14 02:37:26;;;;;;;7.63;5.07;;;10.00;99.90;;;;;;4988444;28;20256;-58
2021/05/14 02:39:51;;;;;;;6.95;5.18;;;10.00;99.90;;;;;;4990159;28;20030;-58
2021/05/14 02:42:17;;;;;;;13.35;5.57;;;10.00;99.90;;;;;;5001500;28;20084;-56
2021/05/14 02:44:43;;;;;;;10.07;5.82;;;10.00;99.90;;;;;;5002914;28;20050;-57
2021/05/14 02:47:09;;;;;;;8.05;5.72;;;10.00;99.90;;;;;;5009420;28;20045;-56
2021/05/14 02:49:36;;;;;;;6.80;5.43;;;10.00;99.90;;;;;;4995672;28;20128;-56
2021/05/14 02:52:03;;;;;;;6.93;5.43;;;10.00;99.90;;;;;;4997130;28;20018;-58
2021/05/14 02:54:28;;;;;;;6.35;4.95;;;10.00;99.90;;;;;;4998826;28;20026;-57
2021/05/14 02:56:54;;;;;;;8.18;4.93;;;10.00;99.90;;;;;;5000496;28;20435;-56
2021/05/14 02:59:21;;;;;;;9.00;5.00;;;10.00;99.90;;;;;;5007450;28;20030;-56
2021/05/14 03:01:47;;;;;;;7.63;4.85;;;10.00;99.90;;;;;;5008501;28;20026;-56
2021/05/14 03:04:13;;;;;;;6.22;4.55;;;10.00;99.90;;;;;;5009281;28;20553;-57
2021/05/14 03:06:38;;;;;;;5.45;4.43;;;10.00;99.90;;;;;;5009146;28;20555;-58
2021/05/14 03:09:05;;;;;;;8.05;4.60;;;10.00;99.90;;;;;;5007970;28;20033;-58
2021/05/14 03:11:31;;;;;;;8.30;4.80;;;9.90;99.90;;;;;;5007514;28;20105;-56
2021/05/14 03:13:56;;;;;;;6.57;4.63;;;9.90;99.90;;;;;;5006234;28;20113;-57
2021/05/14 03:16:22;;;;;;;7.82;4.53;;;9.90;99.90;;;;;;5017338;28;20037;-56
2021/05/14 03:18:48;;;;;;;6.40;4.05;;;9.90;99.90;;;;;;5007621;28;20463;-55
2021/05/14 03:21:13;;;;;;;8.20;4.20;;;9.90;99.90;;;;;;5004021;28;20026;-56
2021/05/14 03:23:39;;;;;;;6.00;4.25;;;9.90;99.90;;;;;;5006888;28;20495;-57
2021/05/14 03:26:05;;;;;;;5.20;3.70;;;9.80;99.90;;;;;;5008480;28;20025;-56
2021/05/14 03:28:31;;;;;;;7.93;4.70;;;9.80;99.90;;;;;;5007956;28;20022;-56
2021/05/14 03:30:57;;;;;;;6.82;4.97;;;9.80;99.90;;;;;;5009002;28;20044;-55
2021/05/14 03:33:22;;;;;;;6.20;4.47;;;9.80;99.90;;;;;;5007244;28;20026;-57
2021/05/14 03:35:49;;;;;;;5.90;4.28;;;9.80;99.90;;;;;;5002690;28;20037;-56
2021/05/14 03:38:15;;;;;;;7.18;4.28;;;9.70;99.90;;;;;;5006532;28;20029;-56
2021/05/14 03:40:42;;;;;;;6.70;4.25;;;9.70;99.90;;;;;;5007637;28;20026;-58
2021/05/14 03:43:08;;;;;;;5.05;3.63;;;9.70;99.90;;;;;;4998676;28;20042;-56
2021/05/14 03:45:34;;;;;;;6.85;3.67;;;9.70;99.90;;;;;;5010765;28;20098;-56
2021/05/14 03:48:00;;;;;;;6.60;3.75;;;9.70;99.90;;;;;;5012949;28;20489;-56
2021/05/14 03:50:28;;;;;;;5.68;3.42;;;9.70;99.90;;;;;;5012248;28;20080;-59
2021/05/14 03:52:58;;;;;;;4.47;3.25;;;9.70;99.90;;;;;;5011636;28;20018;-58
2021/05/14 03:55:24;;;;;;;5.50;3.40;;;9.70;99.90;;;;;;5012832;28;20037;-58
2021/05/14 03:57:49;;;;;;;9.95;3.50;;;9.70;99.90;;;;;;5013370;28;20030;-57
2021/05/14 04:00:16;;;;;;;5.18;3.47;;;9.70;99.90;;;;;;5018997;28;20025;-57
2021/05/14 04:02:41;;;;;;;8.63;3.28;;;9.70;99.90;;;;;;5011423;28;20056;-58
2021/05/14 04:05:08;;;;;;;8.48;3.63;;;9.70;99.90;;;;;;5011680;28;20105;-53
2021/05/14 04:07:33;;;;;;;6.07;3.85;;;9.70;99.90;;;;;;5011044;28;20033;-55
2021/05/14 04:15:10;;;;;;;3.88;3.08;;;9.70;99.90;;;;;;5011846;28;20072;-53
2021/05/14 04:17:37;;;;;;;5.25;3.03;;;9.80;99.90;;;;;;5013012;28;20137;-53
2021/05/14 04:20:06;;;;;;;4.03;3.40;;;9.80;99.90;;;;;;5014075;28;20022;-57
2021/05/14 04:22:32;;;;;;;3.33;2.90;;;9.80;99.90;;;;;;5011085;28;20038;-57
2021/05/14 04:24:57;;;;;;;5.55;3.50;;;9.90;99.90;;;;;;5009285;28;20037;-54
2021/05/14 04:27:23;;;;;;;3.97;3.00;;;9.90;99.90;;;;;;5011110;28;20109;-56
2021/05/14 04:29:49;;;;;;;4.72;3.13;;;10.00;99.90;;;;;;5009969;28;20069;-56
2021/05/14 04:32:15;;;;;;;6.28;3.17;;;10.00;99.90;;;;;;5005801;28;20022;-56
2021/05/14 04:34:41;;;;;;;4.13;2.80;;;10.00;99.90;;;;;;5009668;28;20561;-56
2021/05/14 04:37:07;;;;;;;4.55;3.20;;;10.10;99.90;;;;;;5006285;28;20029;-57
2021/05/14 04:39:33;;;;;;;5.78;2.65;;;10.10;99.90;;;;;;5006698;28;20128;-58
2021/05/14 04:41:59;;;;;;;5.97;2.40;;;10.20;99.90;;;;;;5006713;28;20046;-57
2021/05/14 04:44:24;;;;;;;7.35;3.03;;;10.20;99.90;;;;;;4990413;28;20056;-57
2021/05/14 04:46:52;;;;;;;3.60;2.83;;;10.30;99.90;;;;;;5011409;28;20498;-58
2021/05/14 04:49:17;;;;;;;5.03;2.80;;;10.30;99.90;;;;;;5022853;28;20061;-55
2021/05/14 04:51:43;;;;;;;5.65;3.13;;;10.40;99.90;;;;;;5015648;28;20063;-55
2021/05/14 04:54:09;;;;;;;5.30;2.30;;;10.50;99.90;;;;;;5009325;28;20076;-58
2021/05/14 04:56:34;;;;;;;4.38;2.50;;;10.50;99.90;;;;;;5008712;28;20106;-57
2021/05/14 04:59:00;;;;;;;4.20;2.65;;;10.60;99.90;;;;;;5007394;28;20030;-57
2021/05/14 05:01:26;;;;;;;4.25;2.83;;;10.80;99.90;;;;;;5010189;28;20108;-56
2021/05/14 05:03:54;;;;;;;6.40;4.15;;;10.80;99.90;;;;;;5009971;28;20088;-59
2021/05/14 05:06:20;;;;;;;6.55;2.97;;;10.80;99.90;;;;;;5010110;28;20022;-57
2021/05/14 05:08:46;;;;;;;4.72;2.90;;;10.80;99.90;;;;;;5011001;28;20104;-58
2021/05/14 05:11:11;;;;;;;4.85;3.05;;;10.90;99.90;;;;;;5011111;28;20025;-57
2021/05/14 05:13:37;;;;;;;3.40;2.70;;;10.90;99.90;;;;;;5011041;28;20109;-56
2021/05/14 05:16:03;;;;;;;3.33;2.90;;;11.00;99.90;;;;;;5011775;28;20033;-58
2021/05/14 05:18:29;;;;;;;4.95;2.90;;;11.00;99.90;;;;;;5010469;28;20045;-56
2021/05/14 05:20:54;;;;;;;4.80;2.90;;;11.20;99.90;;;;;;5009518;28;20033;-57
2021/05/14 05:23:20;;;;;;;6.07;3.50;;;11.30;99.90;;;;;;5002771;28;20105;-58
2021/05/14 05:25:47;;;;;;;5.35;2.75;;;11.30;99.90;;;;;;5008340;28;20028;-57
2021/05/14 05:28:13;;;;;;;6.32;3.10;;;11.40;99.90;;;;;;5003825;28;20033;-58
2021/05/14 05:30:39;;;;;;;3.58;2.90;;;11.40;99.90;;;;;;5012917;28;20064;-58
2021/05/14 05:33:04;;;;;;;5.15;3.33;;;11.60;99.90;;;;;;5010901;28;20057;-57
2021/05/14 05:35:30;;;;;;;5.13;2.97;;;11.70;99.90;;;;;;5011326;28;20398;-56
2021/05/14 05:37:56;;;;;;;11.13;3.13;;;11.90;99.90;;;;;;5010428;28;20445;-56
2021/05/14 05:40:21;;;;;;;3.92;2.88;;;12.20;99.90;;;;;;5010674;28;20030;-57
2021/05/14 05:42:47;;;;;;;5.72;2.90;;;12.40;99.90;;;;;;5009059;28;20510;-54
2021/05/14 05:45:13;;;;;;;3.38;2.60;;;12.40;99.90;;;;;;5002570;28;20124;-55
2021/05/14 05:47:39;;;;;;;3.50;2.92;;;12.70;99.90;;;;;;5012646;28;20031;-55
2021/05/14 05:50:06;;;;;;;3.08;2.53;;;12.90;99.90;;;;;;5004374;28;20501;-54
2021/05/14 05:52:32;;;;;;;7.80;3.30;;;13.10;99.90;;;;;;5009125;28;20038;-58
2021/05/14 05:54:58;;;;;;;5.75;3.13;;;12.90;99.90;;;;;;5006148;28;20084;-54
2021/05/14 05:57:23;;;;;;;3.80;2.85;;;13.10;99.90;;;;;;5008121;28;20038;-55
2021/05/14 05:59:49;;;;;;;2.97;2.22;;;13.50;99.90;;;;;;5010531;28;20026;-55
2021/05/14 06:02:14;;;;;;;3.05;2.00;;;14.70;99.90;;;;;;5008380;28;20024;-54
2021/05/14 06:04:40;;;;;;;3.33;2.45;;;15.80;99.90;;;;;;5004806;28;20056;-56
2021/05/14 06:07:06;;;;;;;3.25;2.33;;;17.00;99.90;;;;;;5008748;28;20029;-57
2021/05/14 06:09:31;;;;;;;2.83;2.25;;;17.40;96.80;;;;;;5008405;28;20034;-59
2021/05/14 06:11:57;;;;;;;4.85;2.60;;;17.70;98.70;;;;;;5007219;28;20060;-59
2021/05/14 06:14:23;;;;;;;9.38;3.03;;;18.90;97.20;;;;;;5010171;28;20030;-56
2021/05/14 06:16:49;;;;;;;6.93;4.53;;;19.50;94.20;;;;;;5009342;28;20053;-56
2021/05/14 06:19:21;;;;;;;6.95;4.22;;;19.00;93.90;;;;;;5005358;28;20108;-56
2021/05/14 06:21:48;;;;;;;10.35;5.97;;;18.50;94.00;;;;;;4996451;28;20579;-58
2021/05/14 06:24:15;;;;;;;6.07;4.05;;;18.00;94.60;;;;;;5003814;28;20026;-58
2021/05/14 06:26:41;;;;;;;10.63;5.88;;;17.50;95.20;;;;;;5004955;28;20030;-54
2021/05/14 06:29:08;;;;;;;9.50;4.45;;;17.60;95.50;;;;;;5008480;28;20029;-58
2021/05/14 06:31:34;;;;;;;10.50;4.60;;;17.70;96.30;;;;;;5009570;28;20022;-59
2021/05/14 06:33:59;;;;;;;10.00;4.70;;;17.20;96.40;;;;;;5012736;28;20025;-56
2021/05/14 06:36:25;;;;;;;42.78;16.88;;;17.10;96.80;;;;;;5006053;28;20030;-58
2021/05/14 06:38:54;;;;;;;40.85;17.75;;;17.20;96.30;;;;;;5007860;28;20040;-56
2021/05/14 06:41:19;;;;;;;29.08;12.65;;;17.20;96.70;;;;;;5003691;28;20021;-58
2021/05/14 06:43:45;;;;;;;7.38;3.88;;;17.60;97.20;;;;;;5008173;28;20034;-58
2021/05/14 06:46:10;;;;;;;9.55;3.22;;;17.90;93.60;;;;;;5010190;28;20080;-59
2021/05/14 06:48:36;;;;;;;9.38;4.50;;;18.90;93.70;;;;;;5008758;28;20034;-59
2021/05/14 06:51:05;;;;;;;7.25;3.03;;;19.30;92.60;;;;;;4998132;28;20029;-58
2021/05/14 06:53:31;;;;;;;4.93;2.85;;;19.60;92.50;;;;;;5009278;28;20065;-60
2021/05/14 06:55:56;;;;;;;4.15;2.10;;;19.60;91.40;;;;;;5011638;28;20060;-60
2021/05/14 06:58:22;;;;;;;4.47;2.63;;;19.50;91.30;;;;;;5008127;28;20022;-58
2021/05/14 07:00:47;;;;;;;3.90;2.10;;;19.80;89.90;;;;;;5009645;28;20041;-60
2021/05/14 07:03:14;;;;;;;4.97;1.85;;;20.60;88.40;;;;;;5002099;28;20034;-59
2021/05/14 07:05:40;;;;;;;4.10;1.95;;;21.50;82.10;;;;;;5009513;28;20034;-57
2021/05/14 07:08:06;;;;;;;4.43;1.70;;;21.80;79.20;;;;;;5008461;28;20026;-59
2021/05/14 07:10:32;;;;;;;2.92;1.92;;;22.50;77.10;;;;;;5007829;28;20029;-60
2021/05/14 07:12:58;;;;;;;1.92;1.40;;;23.10;73.00;;;;;;5019061;28;20410;-61
2021/05/14 07:15:24;;;;;;;2.50;1.77;;;23.10;70.60;;;;;;5017749;28;20057;-59
2021/05/14 07:17:51;;;;;;;3.25;1.80;;;22.40;70.60;;;;;;5009790;28;20145;-59
2021/05/14 07:20:16;;;;;;;2.72;2.00;;;21.20;74.30;;;;;;5011861;28;20028;-56
2021/05/14 07:22:42;;;;;;;3.67;1.88;;;20.70;75.40;;;;;;5010942;28;20022;-60
2021/05/14 07:25:08;;;;;;;3.13;2.00;;;20.10;74.80;;;;;;5011054;28;20108;-59
2021/05/14 07:27:34;;;;;;;3.25;1.80;;;20.00;76.60;;;;;;5011091;28;20161;-60
2021/05/14 07:30:01;;;;;;;3.40;2.30;;;20.30;76.10;;;;;;5017841;28;20018;-59
2021/05/14 07:32:27;;;;;;;3.80;1.92;;;20.40;76.90;;;;;;5017802;28;20030;-58
2021/05/14 07:34:53;;;;;;;2.67;1.70;;;21.60;75.90;;;;;;5024212;28;20029;-59
2021/05/14 07:37:19;;;;;;;5.32;2.00;;;23.00;69.00;;;;;;5019113;28;20022;-59
2021/05/14 07:39:45;;;;;;;3.28;2.08;;;22.90;67.20;;;;;;5019035;28;20069;-58
2021/05/14 07:42:11;;;;;;;5.80;1.98;;;22.90;64.60;;;;;;5016837;28;20149;-60
2021/05/14 07:44:40;;;;;;;4.47;2.10;;;22.70;65.60;;;;;;5016033;28;20502;-59
2021/05/14 07:47:06;;;;;;;2.72;1.90;;;22.70;63.70;;;;;;5020193;28;20026;-59
2021/05/14 07:49:35;;;;;;;4.00;1.92;;;22.90;64.30;;;;;;5007215;28;20038;-61
2021/05/14 07:52:01;;;;;;;2.35;1.67;;;23.70;62.30;;;;;;5012383;28;20038;-58
2021/05/14 07:54:27;;;;;;;4.60;1.95;;;22.70;62.20;;;;;;5005018;28;20237;-56
2021/05/14 07:56:53;;;;;;;2.50;1.55;;;22.20;63.90;;;;;;5007602;28;20148;-58
2021/05/14 07:59:18;;;;;;;2.45;1.40;;;22.90;65.00;;;;;;5006993;28;20109;-57
2021/05/14 08:01:44;;;;;;;4.38;1.73;;;23.70;60.50;;;;;;5007687;28;20029;-57
2021/05/14 08:04:10;;;;;;;4.53;1.60;;;24.00;57.60;;;;;;5011103;28;20116;-59
2021/05/14 08:06:36;;;;;;;2.50;1.48;;;24.40;55.60;;;;;;5011076;28;20045;-64
2021/05/14 08:09:06;;;;;;;2.95;1.80;;;24.70;55.60;;;;;;5011009;28;20030;-59
2021/05/14 08:11:32;;;;;;;4.68;1.67;;;25.10;54.10;;;;;;5008104;28;20048;-57
2021/05/14 08:14:00;;;;;;;4.80;1.88;;;25.90;51.60;;;;;;5003877;28;20399;-58
2021/05/14 08:16:26;;;;;;;5.07;1.88;;;25.60;51.10;;;;;;5008062;28;20407;-60
2021/05/14 08:18:52;;;;;;;2.55;1.77;;;24.20;53.60;;;;;;5010496;28;20030;-59
2021/05/14 08:21:21;;;;;;;2.53;1.58;;;24.30;53.10;;;;;;5008501;28;20030;-58
2021/05/14 08:23:47;;;;;;;2.88;1.50;;;23.90;52.20;;;;;;5009246;28;20245;-60
2021/05/14 08:26:13;;;;;;;2.60;1.48;;;24.00;53.40;;;;;;5007033;28;20032;-59
2021/05/14 08:28:40;;;;;;;3.08;1.80;;;24.10;51.40;;;;;;5005892;28;20080;-59
2021/05/14 08:31:06;;;;;;;3.50;1.83;;;23.30;51.80;;;;;;5012566;28;20102;-58
2021/05/14 08:33:32;;;;;;;3.38;1.83;;;23.60;52.30;;;;;;5011078;28;20093;-59
2021/05/14 08:35:58;;;;;;;5.82;1.38;;;23.50;52.40;;;;;;5008983;28;20081;-59
2021/05/14 08:38:26;;;;;;;4.03;1.83;;;24.30;51.80;;;;;;5010106;28;20073;-60
2021/05/14 08:40:52;;;;;;;3.90;1.73;;;24.10;53.30;;;;;;5017330;28;20026;-59
2021/05/14 08:43:18;;;;;;;4.63;2.10;;;24.70;52.80;;;;;;5016899;28;20029;-60
2021/05/14 08:45:44;;;;;;;6.72;2.20;;;25.50;50.60;;;;;;5014616;28;20446;-59
2021/05/14 08:48:14;;;;;;;3.63;1.77;;;25.30;49.10;;;;;;5012288;28;20037;-59
2021/05/14 08:50:41;;;;;;;3.45;1.70;;;25.10;50.70;;;;;;5011701;28;20034;-60
2021/05/14 08:53:07;;;;;;;2.47;1.30;;;24.80;50.20;;;;;;5012236;28;20030;-58
2021/05/14 08:55:33;;;;;;;2.30;1.45;;;24.60;50.50;;;;;;5014627;28;20045;-58
2021/05/14 08:57:59;;;;;;;3.38;1.48;;;25.20;50.50;;;;;;5015396;28;20029;-60
2021/05/14 09:00:26;;;;;;;5.03;1.30;;;25.70;49.80;;;;;;5009037;28;20037;-58
2021/05/14 09:02:53;;;;;;;2.30;1.10;;;25.00;48.50;;;;;;5011205;28;20044;-58
2021/05/14 09:05:33;;;;;;;2.75;1.10;;;24.70;49.40;;;;;;5017495;28;20255;-58
2021/05/14 09:08:00;;;;;;;1.38;1.00;;;24.70;48.30;;;;;;5011633;28;20756;-61
2021/05/14 09:10:28;;;;;;;3.58;1.20;;;25.40;49.40;;;;;;5012112;28;20034;-60
2021/05/14 09:12:55;;;;;;;2.33;1.20;;;25.70;48.20;;;;;;5011058;28;20030;-58
2021/05/14 09:15:37;;;;;;;1.30;1.15;;;26.10;47.40;;;;;;5005502;28;20042;-58
2021/05/14 09:18:16;;;;;;;2.75;1.48;;;25.70;47.40;;;;;;5021922;28;20079;-60
2021/05/14 09:20:42;;;;;;;1.67;1.30;;;25.70;46.80;;;;;;5010248;28;20087;-60
2021/05/14 09:23:21;;;;;;;1.70;1.20;;;25.90;49.00;;;;;;5016146;28;20381;-60
2021/05/14 09:26:07;;;;;;;3.70;1.20;;;26.50;46.20;;;;;;5001115;28;20442;-59
2021/05/14 09:28:41;;;;;;;3.47;1.17;;;26.40;47.00;;;;;;5009661;28;20037;-58
2021/05/14 09:31:07;;;;;;;2.08;1.10;;;24.80;47.70;;;;;;5006985;28;20589;-59
2021/05/14 09:33:34;;;;;;;2.83;1.08;;;23.80;49.70;;;;;;5006612;28;20034;-57
2021/05/14 09:36:06;;;;;;;2.58;1.20;;;24.20;50.80;;;;;;5001479;28;20029;-59
2021/05/14 09:38:50;;;;;;;1.55;1.02;;;24.00;49.90;;;;;;5009301;28;20041;-58
2021/05/14 09:41:31;;;;;;;2.10;0.80;;;24.50;49.20;;;;;;5004193;28;20044;-58
2021/05/14 09:44:10;;;;;;;1.23;0.85;;;24.90;49.00;;;;;;5008127;28;20029;-60
2021/05/14 09:46:41;;;;;;;1.75;1.38;;;24.70;48.40;;;;;;5011141;28;20585;-57
2021/05/14 09:49:16;;;;;;;3.67;1.55;;;25.40;47.70;;;;;;5011171;28;20044;-59
2021/05/14 09:51:55;;;;;;;2.15;1.15;;;24.60;48.20;;;;;;5010129;28;20080;-59
2021/05/14 09:54:20;;;;;;;2.67;1.10;;;23.80;49.40;;;;;;5007089;28;20030;-58
2021/05/14 09:57:03;;;;;;;2.83;1.10;;;23.50;49.80;;;;;;5013832;28;20041;-59
2021/05/14 09:59:31;;;;;;;1.38;0.90;;;22.60;50.00;;;;;;5009300;28;20033;-59
2021/05/14 10:01:58;;;;;;;2.55;1.00;;;22.00;52.00;;;;;;5007157;28;20073;-59
2021/05/14 10:04:26;;;;;;;2.40;1.00;;;21.30;52.70;;;;;;5010853;28;20470;-55
2021/05/14 10:06:53;;;;;;;1.25;1.08;;;20.90;55.40;;;;;;5002617;28;20030;-59
2021/05/14 10:09:20;;;;;;;2.00;1.10;;;21.00;55.50;;;;;;5001526;28;20041;-57
2021/05/14 10:11:46;;;;;;;0.80;0.80;;;20.90;56.70;;;;;;5006062;28;20026;-61
2021/05/14 10:14:11;;;;;;;1.27;1.17;;;21.30;54.70;;;;;;5004682;28;20399;-61
2021/05/14 10:16:38;;;;;;;3.50;1.45;;;21.70;52.70;;;;;;5008250;28;20049;-58
2021/05/14 10:19:04;;;;;;;1.63;1.20;;;21.60;54.20;;;;;;5007097;28;20368;-57
2021/05/14 10:21:30;;;;;;;3.13;1.38;;;21.80;53.10;;;;;;5001846;28;20026;-57
2021/05/14 10:23:56;;;;;;;3.08;1.67;;;22.10;52.80;;;;;;5000065;28;20022;-58
2021/05/14 10:26:22;;;;;;;1.50;1.15;;;21.90;51.90;;;;;;5002426;28;20475;-58
2021/05/14 10:28:49;;;;;;;2.70;1.30;;;21.20;53.30;;;;;;4992295;28;20022;-57
2021/05/14 10:31:20;;;;;;;3.53;1.23;;;21.20;54.50;;;;;;5003158;28;20435;-58
2021/05/14 10:33:54;;;;;;;5.03;2.60;;;21.40;56.20;;;;;;5016275;28;20033;-57
2021/05/14 10:36:24;;;;;;;2.53;1.20;;;21.40;55.90;;;;;;5002170;28;20052;-56
2021/05/14 10:39:07;;;;;;;2.78;1.30;;;21.20;58.80;;;;;;5000389;28;20033;-57
2021/05/14 10:41:45;;;;;;;1.67;1.38;;;21.30;57.80;;;;;;5007043;28;20030;-59
2021/05/14 10:44:11;;;;;;;3.13;1.63;;;20.60;56.10;;;;;;5007783;28;20026;-59
2021/05/14 10:46:36;;;;;;;3.20;1.52;;;20.70;56.90;;;;;;5010016;28;20040;-58
2021/05/14 10:49:13;;;;;;;1.80;1.20;;;21.00;57.30;;;;;;5008703;28;20026;-57
2021/05/14 10:51:51;;;;;;;5.43;1.20;;;20.70;56.00;;;;;;5003057;28;20026;-58
2021/05/14 10:54:49;;;;;;;2.28;1.35;;;20.60;56.30;;;;;;5001958;28;20030;-57
2021/05/14 10:57:35;;;;;;;2.63;1.23;;;20.90;56.30;;;;;;4975894;28;20145;-58
2021/05/14 11:00:29;;;;;;;1.63;1.20;;;21.00;57.70;;;;;;5000410;28;20042;-57
2021/05/14 11:03:13;;;;;;;;;;;21.10;56.30;;;;;;5009747;28;20026;-59
2021/05/14 11:05:41;;;;;;;1.95;1.30;;;21.10;56.20;;;;;;5006276;28;19913;-59
2021/05/14 11:08:11;;;;;;;2.55;1.45;;;20.90;58.80;;;;;;5000676;28;20026;-59
2021/05/14 11:10:38;;;;;;;3.88;1.60;;;21.00;56.50;;;;;;4999615;28;20030;-57
2021/05/14 11:13:47;;;;;;;2.40;1.30;;;20.70;56.90;;;;;;5007097;28;20029;-55
2021/05/14 11:16:42;;;;;;;1.73;1.20;;;20.50;58.70;;;;;;5008147;28;20026;-58
2021/05/14 11:19:18;;;;;;;3.88;1.40;;;20.10;58.70;;;;;;5000121;28;20033;-59
2021/05/14 11:21:55;;;;;;;3.40;1.40;;;19.70;60.20;;;;;;5005709;28;20053;-58
2021/05/14 11:24:42;;;;;;;1.65;1.52;;;19.70;60.90;;;;;;5006363;28;20030;-59
2021/05/14 11:27:17;;;;;;;2.35;1.30;;;19.00;62.80;;;;;;5004853;28;20049;-55
2021/05/14 11:29:52;;;;;;;2.13;1.20;;;18.50;64.40;;;;;;5018031;28;20025;-59
2021/05/14 11:32:22;;;;;;;2.20;1.33;;;18.40;66.70;;;;;;5008013;28;20030;-60
2021/05/14 11:34:57;;;;;;;4.03;1.25;;;18.10;67.10;;;;;;5002536;28;20065;-56
2021/05/14 11:37:30;;;;;;;1.73;0.90;;;17.80;68.60;;;;;;4998961;28;20042;-58
2021/05/14 11:39:56;;;;;;;1.98;1.00;;;17.60;73.80;;;;;;5000042;28;20403;-58
2021/05/14 11:42:26;;;;;;;1.92;0.90;;;17.40;80.80;;;;;;5003840;28;20046;-57
2021/05/14 11:44:59;;;;;;;2.50;0.90;;;16.90;84.70;;;;;;4995747;28;20022;-57
2021/05/14 11:47:25;;;;;;;1.83;0.70;;;16.70;94.50;;;;;;4998350;28;20384;-59
2021/05/14 11:49:51;;;;;;;4.60;1.40;;;16.30;96.90;;;;;;4997094;28;20026;-57
2021/05/14 11:52:40;;;;;;;1.75;0.80;;;16.10;98.60;;;;;;4996369;28;20033;-55
2021/05/14 11:55:10;;;;;;;3.92;0.80;;;15.90;99.80;;;;;;4998108;28;20033;-58
2021/05/14 11:57:38;;;;;;;2.40;0.68;;;15.70;99.90;;;;;;4997308;28;20709;-57
2021/05/14 12:00:06;;;;;;;1.55;0.75;;;15.60;99.90;;;;;;5001323;28;20030;-56
2021/05/14 12:02:44;;;;;;;2.30;0.60;;;15.70;99.90;;;;;;4997593;28;20043;-55
2021/05/14 12:05:12;;;;;;;1.75;0.70;;;15.70;99.90;;;;;;4998073;28;20033;-57
2021/05/14 12:07:39;;;;;;;1.27;0.68;;;15.70;99.90;;;;;;5000770;28;20129;-57
2021/05/14 12:10:08;;;;;;;0.52;0.50;;;15.50;99.90;;;;;;5001778;28;20018;-54
2021/05/14 12:12:37;;;;;;;0.65;0.55;;;15.70;99.90;;;;;;5000335;28;20488;-58
2021/05/14 12:15:23;;;;;;;1.27;0.60;;;16.20;99.90;;;;;;4998621;28;20018;-57
2021/05/14 12:18:00;;;;;;;1.27;0.35;;;16.40;99.90;;;;;;4998083;28;20049;-59
2021/05/14 12:20:33;;;;;;;0.52;0.50;;;16.30;99.60;;;;;;4998111;28;20030;-57
2021/05/14 12:23:02;;;;;;;0.65;0.55;;;16.60;99.30;;;;;;5000909;28;20022;-55
2021/05/14 12:25:30;;;;;;;1.48;0.60;;;17.20;97.90;;;;;;5001262;28;20128;-57
2021/05/14 12:27:56;;;;;;;0.70;0.55;;;17.70;95.60;;;;;;5000700;28;20381;-58
2021/05/14 12:30:37;;;;;;;1.50;0.90;;;17.60;94.60;;;;;;5001533;28;20034;-58
2021/05/14 12:33:03;;;;;;;1.10;0.80;;;17.70;95.60;;;;;;4996268;28;20403;-58
2021/05/14 12:35:29;;;;;;;0.70;0.70;;;17.50;93.90;;;;;;4999921;28;20053;-58
2021/05/14 12:37:58;;;;;;;1.67;0.90;;;17.70;93.20;;;;;;4997835;28;20100;-58
2021/05/14 12:40:32;;;;;;;0.88;0.50;;;17.70;92.60;;;;;;4998825;28;20021;-54
2021/05/14 12:43:07;;;;;;;2.50;0.70;;;17.70;91.00;;;;;;4999762;28;20030;-58
2021/05/14 12:45:35;;;;;;;1.20;0.55;;;17.50;90.70;;;;;;5002438;28;20418;-59
2021/05/14 12:48:02;;;;;;;0.73;0.40;;;17.30;89.10;;;;;;5000922;28;20459;-60
2021/05/14 12:50:28;;;;;;;1.35;0.55;;;17.30;88.70;;;;;;4997110;28;20030;-56
2021/05/14 12:52:54;;;;;;;2.50;0.50;;;17.30;90.00;;;;;;5005055;28;20509;-57
2021/05/14 12:55:20;;;;;;;1.48;0.50;;;17.20;86.60;;;;;;4998909;28;20116;-56
2021/05/14 12:58:03;;;;;;;1.35;0.70;;;17.20;89.40;;;;;;4999103;28;20044;-58